Badger Spring Valley, Nevada Weather observations

Data are for 10 minute period ending at time listed.
 Day   Time   Solar   Ave.   Ave.  Ave.  Vector  Max.   Baro.   Total    
  of    of     Rad.   Air    Rel.  Wind   Wind   Wind  Press.  Precip.   
Year   Day            Temp.  Hum.  Speed  Dir.   Gust                    
2015   (PST)  Kw/m2    F      %     mph   deg.    mph    mb.     in.     
-------------------------------------------------------------------------
 143   11:20   100.00   60.4    44    7.7   255    14.9   828.4    0.00 
 143   11:30   100.00   61.1    43    8.8   237    15.2   828.4    0.00 
 143   11:40   100.00   62.0    41   11.4   229    19.6   828.3    0.00 
 143   11:50   100.00   62.6    40   11.3   220    18.0   828.3    0.00 
 143   12:00   100.00   63.0    38   10.6   222    16.3   828.3    0.00 
 143   12:10   100.00   61.8    39    7.9   256    13.7   828.2    0.00 
 143   12:20   100.00   61.7    38    8.7   240    15.8   828.2    0.00 
 143   12:30   100.00   63.4    37    9.3   201    14.3   828.1    0.00 
 143   12:40   100.00   64.3    35    9.7   228    16.2   828.0    0.00 
 143   12:50   100.00   63.9    36    9.8   229    20.3   827.9    0.00 
 143   13:00   0.23   62.3    37   12.0   244    19.4   827.9    0.00 
 143   13:10   0.12   59.0    54   15.5   278    25.2   828.1    0.00 
 143   13:20   0.08   53.7    72   14.5   281    22.0   828.2    0.00 
 143   13:30   0.07   52.5    76   10.3   290    19.2   828.1    0.02 
 143   13:40   0.09   52.8    73   10.4   244    20.6   827.6    0.01 
 143   13:50   0.30   52.7    77    6.7   219    15.5   827.2    0.00 
 143   14:00   0.96   56.0    72    7.7   195    12.1   827.2    0.00 
 143   14:10   0.87   57.9    68    9.3   178    12.9   827.3    0.00 
 143   14:20   0.91   58.7    63   10.3   181    14.0   827.5    0.00 
 143   14:30   0.80   60.3    55   10.1   179    15.5   827.5    0.00 
 143   14:40   0.87   61.7    52   11.4   184    16.7   827.4    0.00 
 143   14:50   0.32   60.2    52   10.8   177    14.9   827.5    0.00 
 143   15:00   0.17   58.2    57   11.6   192    15.1   827.3    0.00 
 143   15:10   0.13   56.9    60   10.6   213    17.8   827.3    0.00 
 143   15:20   0.18   57.3    58   12.4   237    17.9   827.2    0.00 
 143   15:30   0.27   57.0    58   11.7   223    16.5   827.0    0.00 
 143   15:40   0.40   57.8    57    9.8   241    15.2   826.9    0.00 
 143   15:50   0.34   58.5    56   11.7   243    18.6   826.9    0.00 
 143   16:00   0.30   58.5    55   12.2   240    17.6   826.9    0.00 
 143   16:10   0.60   59.9    53    7.6   225    11.8   826.8    0.00 
 143   16:20   0.66   61.4    50    8.5   215    13.3   826.9    0.00 
 143   16:30   0.63   61.4    51    9.2   210    13.2   826.8    0.00 
 143   16:40   0.49   61.9    48    9.8   214    14.2   827.0    0.00 
 143   16:50   0.55   62.1    47   10.6   196    15.1   827.1    0.00 
 143   17:00   0.33   61.4    48   10.5   182    16.2   827.1    0.00 
 143   17:10   0.16   59.5    52   12.9   185    18.6   827.0    0.00 
 143   17:20   0.19   59.1    51   11.5   192    16.0   827.1    0.00 
 143   17:30   0.19   58.3    54   10.4   181    16.1   827.1    0.00 
 143   17:40   0.12   57.8    56   10.1   181    15.0   827.1    0.00 
 143   17:50   0.08   56.3    62    8.2   187    11.8   827.0    0.00 
 143   18:00   0.09   56.3    61    7.1   186    11.1   826.8    0.00 
 143   18:10   0.05   55.6    65    6.1   169    10.0   826.7    0.00 
 143   18:20   0.02   54.5    68    4.7   170     8.5   826.8    0.00 
 143   18:30   0.01   55.5    60    7.3   224    13.8   826.8    0.00 
 143   18:40   0.00   56.6    57    7.5   285    14.3   827.0    0.00 
 143   18:50   0.00   55.7    65   10.0   345    16.9   827.3    0.00 
 143   19:00   0.00   54.2    72    9.1   330    15.0   827.5    0.00 
 143   19:10   0.00   53.1    78   11.1   338    14.6   827.5    0.00 
 143   19:20   0.00   52.6    79   11.7   347    15.2   827.4    0.00 
 143   19:30   0.00   52.3    83    9.7   335    14.8   827.6    0.00 
 143   19:40   0.00   51.7    86    5.2   294     8.3   827.5    0.01 
 143   19:50   0.00   51.6    87    6.5   245     8.8   827.3    0.00 
 143   20:00   0.00   51.6    85    6.9   262     9.6   827.1    0.01 
 143   20:10   0.00   51.5    85    5.5   290     8.4   827.1    0.00 
 143   20:20   0.00   51.5    85    5.6   289     8.0   827.2    0.00 
 143   20:30   0.00   51.8    83    8.0   279    10.4   827.1    0.00 
 143   20:40   0.00   51.8    84    8.8   280    11.3   827.2    0.00 
 143   20:50   0.00   51.9    82    9.0   282    12.3   827.1    0.00 
 143   21:00   0.00   51.9    81    9.3   273    14.0   827.1    0.00 
 143   21:10   0.00   51.9    79   10.4   286    14.5   827.1    0.00 
 143   21:20   0.00   52.3    74   12.2   291    15.6   827.1    0.00 
 143   21:30   0.00   52.6    72   11.2   291    15.3   827.1    0.00 
 143   21:40   0.00   52.9    70   10.6   290    15.7   827.1    0.00 
 143   21:50   0.00   52.7    71    4.2   335     9.3   827.3    0.00 
 143   22:00   0.00   53.1    70    4.3     4    10.7   827.4    0.00 
 143   22:10   0.00   52.8    74    6.4     0     9.4   827.6    0.00 
 143   22:20   0.00   52.9    73    4.9     4    12.9   827.7    0.00 
 143   22:30   0.00   52.2    77    9.3   351    14.7   827.8    0.00 
 143   22:40   0.00   51.5    81    9.4   336    15.5   827.8    0.00 
 143   22:50   0.00   51.4    81    9.1   337    17.5   827.8    0.00 
 143   23:00   0.00   50.7    85   11.8   340    16.7   827.7    0.01 
 143   23:10   0.00   50.7    84   10.0   342    14.5   827.7    0.02 
 143   23:20   0.00   51.1    82    7.0   337    11.8   827.7    0.00 
 143   23:30   0.00   51.1    82    7.6   336    11.0   827.7    0.00 
 143   23:40   0.00   51.0    82    6.9   338     9.3   827.7    0.00 
 143   23:50   0.00   51.0    81    6.8   336    10.4   827.6    0.00 
 144    0:00   0.00   50.8    81    7.3   336     9.9   827.6    0.00 
 144    0:10   0.00   50.6    82    5.3   343     7.1   827.7    0.00 
 144    0:20   0.00   50.3    83    6.4     0     9.6   827.7    0.00 
 144    0:30   0.00   50.4    80    7.2   348     9.6   827.7    0.00 
 144    0:40   0.00   50.2    81    8.7   347    10.5   827.6    0.00 
 144    0:50   0.00   50.0    81    8.3   339    12.2   827.6    0.00 
 144    1:00   0.00   50.7    76    7.2   306    11.6   827.6    0.00 
 144    1:10   0.00   50.6    76    6.2   292     9.5   827.5    0.00 
 144    1:20   0.00   49.9    77    7.1   284     8.8   827.4    0.00 
 144    1:30   0.00   49.2    79    6.3   294     7.7   827.4    0.00 
 144    1:40   0.00   49.2    79    4.1   308     5.6   827.4    0.00 
 144    1:50   0.00   49.2    80    3.4   328     5.5   827.4    0.00 
 144    2:00   0.00   50.1    78    5.5   339     7.4   827.3    0.00 
 144    2:10   0.00   50.5    78    5.4   351     6.7   827.3    0.00 
 144    2:20   0.00   50.4    78    5.7   358     7.2   827.3    0.00 
 144    2:30   0.00   50.5    77    4.2   336     6.6   827.3    0.00 
 144    2:40   0.00   51.2    73    4.0   326     7.2   827.3    0.00 
 144    2:50   0.00   51.9    70    4.5   322     7.2   827.3    0.00 
 144    3:00   0.00   51.8    70    4.0   316     7.3   827.3    0.00 
 144    3:10   0.00   51.9    70    3.5   320     5.8   827.2    0.00 
 144    3:20   0.00   51.7    70    2.9   331     4.7   827.1    0.00 
 144    3:30   0.00   51.5    71    3.0   347     5.3   827.1    0.00 
 144    3:40   0.00   51.1    73    2.7   353     3.7   827.1    0.00 
 144    3:50   0.00   50.4    76    3.0   355     3.7   827.2    0.00 
 144    4:00   0.00   50.1    75    2.9   353     4.5   827.2    0.00 
 144    4:10   0.00   50.4    74    2.8   330     4.5   827.3    0.00 
 144    4:20   0.00   50.5    75    4.3   341     6.7   827.4    0.00 
 144    4:30   0.00   50.3    76    5.1   346     6.7   827.4    0.00 
 144    4:40   0.01   50.0    78    5.1   342     6.6   827.4    0.00 
 144    4:50   0.03   49.7    79    3.6   353     4.3   827.5    0.00 
 144    5:00   0.06   50.6    77    3.5   335     5.1   827.5    0.00 
 144    5:10   0.11   51.4    74    4.5   341     7.1   827.7    0.00 
 144    5:20   0.14   52.6    71    4.9   335     7.5   827.7    0.00 
 144    5:30   0.07   52.4    71    4.0   335     6.9   827.8    0.00 
 144    5:40   0.10   51.8    74    4.3   354     7.1   827.9    0.00 
 144    5:50   0.11   51.8    74    6.4     1     8.7   828.0    0.00 
 144    6:00   0.13   51.8    74    6.9     6     9.6   827.9    0.00 
 144    6:10   0.13   52.0    75    5.8   356     8.6   828.0    0.00 
 144    6:20   0.15   52.5    73    5.1   358     7.5   828.0    0.00 
 144    6:30   0.16   52.7    72    5.1    10     7.7   828.1    0.00 
 144    6:40   0.17   52.9    71    6.1    13     9.0   828.2    0.00 
 144    6:50   0.17   53.0    71    4.8    10     6.5   828.2    0.00 
 144    7:00   0.19   53.4    72    3.8     5     5.9   828.3    0.00 
 144    7:10   0.19   53.7    71    4.7    18     6.6   828.4    0.00 
 144    7:20   0.25   53.6    72    5.3    17     7.6   828.5    0.00 
 144    7:30   0.24   54.0    70    5.8     4     9.0   828.6    0.00 
 144    7:40   0.21   53.4    71    6.5    16     8.5   828.7    0.00 
 144    7:50   0.27   53.5    71    4.9    20     8.1   828.7    0.00 
 144    8:00   0.28   54.0    71    3.6    37     6.3   828.8    0.00 
 144    8:10   0.32   54.4    70    4.2    20     6.6   828.8    0.00 
 144    8:20   0.35   54.6    69    4.6    33     6.9   828.9    0.00 
 144    8:30   0.46   55.0    67    4.2    28     7.1   828.9    0.00 
 144    8:40   0.56   56.1    64    6.0    16     9.8   829.0    0.00 
 144    8:50   0.49   56.1    65    5.7    10     9.8   829.0    0.00 
 144    9:00   0.48   56.3    63    3.2    15     7.5   829.0    0.00 
 144    9:10   0.49   57.1    62    4.4     6     8.1   829.1    0.00 
 144    9:20   0.45   57.3    62    3.9   345     7.0   829.1    0.00 
 144    9:30   100.00   58.7    60    3.0    38     5.8   829.2    0.00 
 144    9:40   1.05   60.5    56    4.3    28     9.8   829.1    0.00 
 144    9:50   100.00   61.2    52    7.1    17    12.3   829.1    0.00 
 144   10:00   0.47   59.8    52    7.9   344    12.8   829.1    0.00 
 144   10:10   0.32   58.7    57    8.1     1    14.2   829.1    0.00 
 144   10:20   100.00   60.2    53    7.5   354    14.2   829.1    0.00 
 144   10:30   0.37   59.6    54    6.9   342    13.4   829.1    0.00 
 144   10:40   0.54   59.5    53    2.0   250     4.7   829.0    0.00 
 144   10:50   1.18   61.3    48    4.1   271     7.3   828.9    0.00 
 144   11:00   0.91   62.5    47    6.9   210    10.2   828.8    0.00 
 144   11:10   0.57   62.3    47    5.4   226    10.2   828.8    0.00 

Return to Badger Spring Valley graphs page.


Western Regional Climate Center,wrcc@dri.edu